createdAt,value
2022-11-13T00:00:21.940Z,12.02
2022-11-13T00:02:48.279Z,12.01
2022-11-13T00:05:14.618Z,11.96
2022-11-13T00:07:41.053Z,11.96
2022-11-13T00:10:07.557Z,11.99
2022-11-13T00:12:33.831Z,12.05
2022-11-13T00:15:00.098Z,12.14
2022-11-13T00:17:26.378Z,12.14
2022-11-13T00:19:52.840Z,12.27
2022-11-13T00:22:19.107Z,12.16
2022-11-13T00:24:45.416Z,12.14
2022-11-13T00:27:11.764Z,12.21
2022-11-13T00:29:38.032Z,12.21
2022-11-13T00:32:04.411Z,12.07
2022-11-13T00:34:46.981Z,11.89
2022-11-13T00:37:14.185Z,12.13
2022-11-13T00:39:40.465Z,12.16
2022-11-13T00:42:06.730Z,12.18
2022-11-13T00:44:32.991Z,12.19
2022-11-13T00:46:59.277Z,12.14
2022-11-13T00:49:25.535Z,12.08
2022-11-13T00:51:51.797Z,12.13
2022-11-13T00:54:18.092Z,12.14
2022-11-13T00:56:44.354Z,12.09
2022-11-13T00:59:10.675Z,11.99
2022-11-13T01:01:37.001Z,11.82
2022-11-13T01:04:03.299Z,11.78
2022-11-13T01:06:29.840Z,11.62
2022-11-13T01:08:56.562Z,11.67
2022-11-13T01:11:23.569Z,11.85
2022-11-13T01:13:49.978Z,11.99
2022-11-13T01:16:16.600Z,11.96
2022-11-13T01:18:42.926Z,12.02
2022-11-13T01:21:13.243Z,12.03
2022-11-13T01:23:39.518Z,11.86
2022-11-13T01:26:09.921Z,11.84
2022-11-13T01:28:36.257Z,11.72
2022-11-13T01:31:09.305Z,11.82
2022-11-13T01:33:35.587Z,11.73
2022-11-13T01:36:08.886Z,11.78
2022-11-13T01:38:37.013Z,11.83
2022-11-13T01:41:04.259Z,11.61
2022-11-13T01:43:34.592Z,11.53
2022-11-13T01:46:07.088Z,11.55
2022-11-13T01:48:37.387Z,11.60
2022-11-13T01:51:05.542Z,11.67
2022-11-13T01:53:31.833Z,11.57
2022-11-13T01:55:58.120Z,11.68
2022-11-13T01:58:24.545Z,11.66
2022-11-13T02:00:50.930Z,11.72
2022-11-13T02:03:17.193Z,11.78
2022-11-13T02:05:43.462Z,11.86
2022-11-13T02:08:09.767Z,11.79
2022-11-13T02:10:36.037Z,11.67
2022-11-13T02:13:02.307Z,11.78
2022-11-13T02:15:28.599Z,11.72
2022-11-13T02:17:55.362Z,11.77
2022-11-13T02:20:39.690Z,11.48
2022-11-13T02:23:11.721Z,11.34
2022-11-13T02:25:38.015Z,11.36
2022-11-13T02:28:04.285Z,11.31
2022-11-13T02:30:31.198Z,11.62
2022-11-13T02:32:57.677Z,11.62
2022-11-13T02:35:33.841Z,11.84
2022-11-13T02:38:01.090Z,11.80
2022-11-13T02:40:27.350Z,11.71
2022-11-13T02:42:53.624Z,11.71
2022-11-13T02:45:19.945Z,11.78
2022-11-13T02:47:46.208Z,11.93
2022-11-13T02:50:12.480Z,11.91
2022-11-13T02:52:38.835Z,11.86
2022-11-13T02:55:05.376Z,11.81
2022-11-13T02:57:31.676Z,11.96
2022-11-13T02:59:57.948Z,12.01
2022-11-13T03:02:24.217Z,12.03
2022-11-13T03:05:11.344Z,12.06
2022-11-13T03:07:36.722Z,12.11
2022-11-13T03:10:03.123Z,12.19
2022-11-13T03:12:29.396Z,12.07
2022-11-13T03:14:55.673Z,12.09
2022-11-13T03:17:21.957Z,12.04
2022-11-13T03:19:48.230Z,12.18
2022-11-13T03:22:14.517Z,12.13
2022-11-13T03:24:40.792Z,12.03
2022-11-13T03:27:07.068Z,12.12
2022-11-13T03:29:33.347Z,12.15
2022-11-13T03:31:59.686Z,12.14
2022-11-13T03:34:25.960Z,12.12
2022-11-13T03:36:52.230Z,12.11
2022-11-13T03:39:18.547Z,11.98
2022-11-13T03:41:44.823Z,12.00
2022-11-13T03:44:11.102Z,11.92
2022-11-13T03:46:37.380Z,11.80
2022-11-13T03:49:03.653Z,11.94
2022-11-13T03:51:29.930Z,11.76
2022-11-13T03:53:57.971Z,11.86
2022-11-13T03:56:24.317Z,11.88
2022-11-13T03:58:50.581Z,11.82
2022-11-13T04:01:16.911Z,11.76
2022-11-13T04:03:43.222Z,11.70
2022-11-13T04:06:09.662Z,11.66
2022-11-13T04:08:35.949Z,11.63
2022-11-13T04:11:08.576Z,11.58
2022-11-13T04:13:34.840Z,11.40
2022-11-13T04:16:01.105Z,11.46
2022-11-13T04:18:27.631Z,11.45
2022-11-13T04:20:58.891Z,11.30
2022-11-13T04:23:25.171Z,11.44
2022-11-13T04:25:51.448Z,11.52
2022-11-13T04:28:17.722Z,11.53
2022-11-13T04:30:43.999Z,11.45
2022-11-13T04:33:10.277Z,11.42
2022-11-13T04:35:36.609Z,11.34
2022-11-13T04:38:02.896Z,11.29
2022-11-13T04:40:29.167Z,11.38
2022-11-13T04:42:55.447Z,11.46
2022-11-13T04:45:22.391Z,11.61
2022-11-13T04:47:48.664Z,11.35
2022-11-13T04:50:15.228Z,11.32
2022-11-13T04:52:41.640Z,11.26
2022-11-13T04:55:08.122Z,11.19
2022-11-13T04:57:34.381Z,10.95
2022-11-13T05:00:00.651Z,11.04
2022-11-13T05:02:27.019Z,11.13
2022-11-13T05:04:53.324Z,11.26
2022-11-13T05:07:19.603Z,11.38
2022-11-13T05:09:45.944Z,11.44
2022-11-13T05:12:12.280Z,11.49
2022-11-13T05:14:38.681Z,11.42
2022-11-13T05:17:05.036Z,11.51
2022-11-13T05:19:34.372Z,11.46
2022-11-13T05:22:00.731Z,11.36
2022-11-13T05:24:26.995Z,11.34
2022-11-13T05:26:53.260Z,11.29
2022-11-13T05:29:19.540Z,11.17
2022-11-13T05:31:45.938Z,11.08
2022-11-13T05:34:12.200Z,11.01
2022-11-13T05:36:38.464Z,10.95
2022-11-13T05:39:04.748Z,10.95
2022-11-13T05:41:31.020Z,10.99
2022-11-13T05:43:59.566Z,11.02
2022-11-13T05:46:27.036Z,11.10
2022-11-13T05:48:54.024Z,11.15
2022-11-13T05:51:21.257Z,11.19
2022-11-13T05:53:47.563Z,11.13
2022-11-13T05:56:14.598Z,11.24
2022-11-13T05:58:40.928Z,11.29
2022-11-13T06:01:11.309Z,11.12
2022-11-13T06:03:37.665Z,11.03
2022-11-13T06:06:04.502Z,11.14
2022-11-13T06:08:31.093Z,11.13
2022-11-13T06:11:04.523Z,11.13
2022-11-13T06:13:30.777Z,11.05
2022-11-13T06:16:00.360Z,11.01
2022-11-13T06:18:27.010Z,11.02
2022-11-13T06:20:53.341Z,11.00
2022-11-13T06:23:19.601Z,11.15
2022-11-13T06:25:45.884Z,11.24
2022-11-13T06:28:12.159Z,11.07
2022-11-13T06:30:38.477Z,11.16
2022-11-13T06:33:05.049Z,11.24
2022-11-13T06:35:31.980Z,11.23
2022-11-13T06:37:58.266Z,11.24
2022-11-13T06:40:24.540Z,11.23
2022-11-13T06:42:50.815Z,11.18
2022-11-13T06:45:17.095Z,11.23
2022-11-13T06:47:43.362Z,11.21
2022-11-13T06:50:09.741Z,11.12
2022-11-13T06:52:36.019Z,11.19
2022-11-13T06:55:02.367Z,11.04
2022-11-13T06:57:28.745Z,11.02
2022-11-13T06:59:55.015Z,11.14
2022-11-13T07:02:21.284Z,11.23
2022-11-13T07:04:47.564Z,11.20
2022-11-13T07:07:13.915Z,11.14
2022-11-13T07:09:40.209Z,11.14
2022-11-13T07:12:06.527Z,10.97
2022-11-13T07:14:32.793Z,10.91
2022-11-13T07:17:09.557Z,10.95
2022-11-13T07:19:36.567Z,11.20
2022-11-13T07:22:02.851Z,11.48
2022-11-13T07:24:29.117Z,11.57
2022-11-13T07:26:55.388Z,11.48
2022-11-13T07:29:21.724Z,11.68
2022-11-13T07:31:47.992Z,11.85
2022-11-13T07:34:14.724Z,12.00
2022-11-13T07:36:41.006Z,11.75
2022-11-13T07:39:07.322Z,11.82
2022-11-13T07:41:33.608Z,11.94
2022-11-13T07:43:59.874Z,12.17
2022-11-13T07:46:26.147Z,12.32
2022-11-13T07:48:52.456Z,12.27
2022-11-13T07:51:18.774Z,12.17
2022-11-13T07:53:45.069Z,12.42
2022-11-13T07:56:11.342Z,12.51
2022-11-13T07:58:37.649Z,12.20
2022-11-13T08:01:04.571Z,12.38
2022-11-13T08:03:30.900Z,12.48
2022-11-13T08:06:01.725Z,12.77
2022-11-13T08:08:28.276Z,12.87
2022-11-13T08:10:54.936Z,12.97
2022-11-13T08:13:21.273Z,13.14
2022-11-13T08:15:47.593Z,13.20
2022-11-13T08:18:13.873Z,13.20
2022-11-13T08:20:40.202Z,13.09
2022-11-13T08:23:06.520Z,13.21
2022-11-13T08:25:32.944Z,13.25
2022-11-13T08:27:59.223Z,13.38
2022-11-13T08:30:26.016Z,13.27
2022-11-13T08:32:52.417Z,13.45
2022-11-13T08:35:19.505Z,13.60
2022-11-13T08:37:46.575Z,13.47
2022-11-13T08:40:12.917Z,13.64
2022-11-13T08:42:39.210Z,13.72
2022-11-13T08:45:05.637Z,13.37
2022-11-13T08:47:32.174Z,13.26
2022-11-13T08:49:58.468Z,13.34
2022-11-13T08:52:24.785Z,13.39
2022-11-13T08:54:51.091Z,13.31
2022-11-13T08:57:17.433Z,13.43
2022-11-13T08:59:43.705Z,13.46
2022-11-13T09:02:12.825Z,13.58
2022-11-13T09:04:39.097Z,13.55
2022-11-13T09:07:05.411Z,13.62
2022-11-13T09:09:31.750Z,13.49
2022-11-13T09:11:58.122Z,13.44
2022-11-13T09:14:24.974Z,13.41
2022-11-13T09:16:51.242Z,13.47
2022-11-13T09:19:17.516Z,13.44
2022-11-13T09:21:43.813Z,13.43
2022-11-13T09:24:10.123Z,13.48
2022-11-13T09:26:36.411Z,13.41
2022-11-13T09:29:02.719Z,13.53
2022-11-13T09:31:28.984Z,13.12
2022-11-13T09:33:55.242Z,13.34
2022-11-13T09:36:21.556Z,13.44
2022-11-13T09:38:47.858Z,13.55
2022-11-13T09:41:14.883Z,13.61
2022-11-13T09:43:45.325Z,13.53
2022-11-13T09:46:15.356Z,13.59
2022-11-13T09:48:48.092Z,13.51
2022-11-13T09:51:15.570Z,13.69
2022-11-13T09:53:41.855Z,13.72
2022-11-13T09:56:14.196Z,13.75
2022-11-13T09:58:51.769Z,13.78
2022-11-13T10:01:23.450Z,13.79
2022-11-13T10:04:02.368Z,13.87
2022-11-13T10:06:36.661Z,13.62
2022-11-13T10:09:05.302Z,13.63
2022-11-13T10:11:34.615Z,13.83
2022-11-13T10:14:01.817Z,13.85
2022-11-13T10:16:31.350Z,13.89
2022-11-13T10:19:00.890Z,13.80
2022-11-13T10:21:30.875Z,13.81
2022-11-13T10:23:57.276Z,13.98
2022-11-13T10:26:27.309Z,13.96
2022-11-13T10:29:00.607Z,14.12
2022-11-13T10:31:26.966Z,14.04
2022-11-13T10:33:54.044Z,13.77
2022-11-13T10:36:35.653Z,13.90
2022-11-13T10:39:05.512Z,13.87
2022-11-13T10:41:31.904Z,13.99
2022-11-13T10:43:59.183Z,14.13
2022-11-13T10:46:26.030Z,14.03
2022-11-13T10:48:52.387Z,13.94
2022-11-13T10:51:22.950Z,13.99
2022-11-13T10:53:49.229Z,14.02
2022-11-13T10:56:21.811Z,14.14
2022-11-13T10:59:04.134Z,14.34
2022-11-13T11:01:30.563Z,14.27
2022-11-13T11:03:56.928Z,14.44
2022-11-13T11:06:56.267Z,14.30
2022-11-13T11:09:27.180Z,14.47
2022-11-13T11:12:21.200Z,14.42
2022-11-13T11:14:49.394Z,14.39
2022-11-13T11:17:15.848Z,14.45
2022-11-13T11:19:42.105Z,14.62
2022-11-13T11:22:18.358Z,14.59
2022-11-13T11:24:54.558Z,14.65
2022-11-13T11:27:23.025Z,14.77
2022-11-13T11:29:50.739Z,14.75
2022-11-13T11:32:25.384Z,14.70
2022-11-13T11:35:06.803Z,14.69
2022-11-13T11:37:35.370Z,14.63
2022-11-13T11:40:05.317Z,14.34
2022-11-13T11:42:36.740Z,14.35
2022-11-13T11:45:22.123Z,14.43
2022-11-13T11:47:48.394Z,14.69
2022-11-13T11:50:15.564Z,14.84
2022-11-13T11:52:51.947Z,14.82
2022-11-13T11:55:33.448Z,14.74
2022-11-13T11:58:18.518Z,14.13
2022-11-13T12:00:49.609Z,13.60
2022-11-13T12:03:34.578Z,13.88
2022-11-13T12:06:19.541Z,13.98
2022-11-13T12:08:48.116Z,14.46
2022-11-13T12:11:16.622Z,14.45
2022-11-13T12:14:04.178Z,14.59
2022-11-13T12:16:49.413Z,14.95
2022-11-13T12:19:33.881Z,15.19
2022-11-13T12:22:16.214Z,15.24
2022-11-13T12:24:45.809Z,15.24
2022-11-13T12:27:18.221Z,15.29
2022-11-13T12:30:01.044Z,15.20
2022-11-13T12:32:27.293Z,15.38
2022-11-13T12:34:55.287Z,15.55
2022-11-13T12:37:41.803Z,15.45
2022-11-13T12:40:14.619Z,15.48
2022-11-13T12:42:40.871Z,15.58
2022-11-13T12:45:22.501Z,15.62
2022-11-13T12:47:52.177Z,15.66
2022-11-13T12:50:32.110Z,15.59
2022-11-13T12:53:06.682Z,15.58
2022-11-13T12:58:25.509Z,15.33
2022-11-13T13:01:12.197Z,15.29
2022-11-13T13:03:41.636Z,15.04
2022-11-13T13:06:17.506Z,15.11
2022-11-13T13:08:52.841Z,14.60
2022-11-13T13:11:28.868Z,14.96
2022-11-13T13:14:06.021Z,15.36
2022-11-13T13:16:32.383Z,15.51
2022-11-13T13:19:08.384Z,15.66
2022-11-13T13:21:41.925Z,15.69
2022-11-13T13:24:09.251Z,15.56
2022-11-13T13:26:43.297Z,15.49
2022-11-13T13:29:19.448Z,15.43
2022-11-13T13:31:51.655Z,15.16
2022-11-13T13:34:34.859Z,15.18
2022-11-13T13:37:16.880Z,14.96
2022-11-13T13:39:51.659Z,14.82
2022-11-13T13:42:21.007Z,14.85
2022-11-13T13:44:50.283Z,14.81
2022-11-13T13:47:27.099Z,14.69
2022-11-13T13:49:53.367Z,14.47
2022-11-13T13:52:21.912Z,14.41
2022-11-13T13:54:48.227Z,14.25
2022-11-13T13:57:14.938Z,14.24
2022-11-13T13:59:41.578Z,14.14
2022-11-13T14:02:15.005Z,14.14
2022-11-13T14:04:48.142Z,13.84
2022-11-13T14:07:22.225Z,13.86
2022-11-13T14:09:48.639Z,13.66
2022-11-13T14:12:18.598Z,13.81
2022-11-13T14:14:44.885Z,13.71
2022-11-13T14:17:11.388Z,13.94
2022-11-13T14:19:37.919Z,13.82
2022-11-13T14:22:04.732Z,13.53
2022-11-13T14:24:34.007Z,13.75
2022-11-13T14:27:01.768Z,13.93
2022-11-13T14:29:35.161Z,13.89
2022-11-13T14:32:22.155Z,13.78
2022-11-13T14:34:52.029Z,13.85
2022-11-13T14:37:22.934Z,13.83
2022-11-13T14:39:49.605Z,13.90
2022-11-13T14:42:16.768Z,13.96
2022-11-13T14:44:43.063Z,14.06
2022-11-13T14:47:21.456Z,13.76
2022-11-13T14:49:47.729Z,13.87
2022-11-13T14:52:24.482Z,13.86
2022-11-13T14:55:14.731Z,13.90
2022-11-13T14:57:50.308Z,13.95
2022-11-13T15:00:17.173Z,14.01
2022-11-13T15:02:43.436Z,14.10
2022-11-13T15:05:09.718Z,14.12
2022-11-13T15:07:37.661Z,14.09
2022-11-13T15:10:04.108Z,13.83
2022-11-13T15:12:30.526Z,13.71
2022-11-13T15:14:56.798Z,13.84
2022-11-13T15:17:23.261Z,13.86
2022-11-13T15:19:51.345Z,13.97
2022-11-13T15:22:27.021Z,14.05
2022-11-13T15:24:54.069Z,14.17
2022-11-13T15:27:20.564Z,14.24
2022-11-13T15:29:46.883Z,14.19
2022-11-13T15:32:13.592Z,14.09
2022-11-13T15:34:39.868Z,13.98
2022-11-13T15:37:12.908Z,14.09
2022-11-13T15:39:39.279Z,14.18
2022-11-13T15:42:06.454Z,14.12
2022-11-13T15:44:32.735Z,14.29
2022-11-13T15:46:58.998Z,13.78
2022-11-13T15:49:25.702Z,13.73
2022-11-13T15:51:52.007Z,13.86
2022-11-13T15:54:28.474Z,14.18
2022-11-13T15:56:54.743Z,14.06
2022-11-13T15:59:21.017Z,14.28
2022-11-13T16:01:47.759Z,14.14
2022-11-13T16:04:16.121Z,13.59
2022-11-13T16:06:42.451Z,13.82
2022-11-13T16:09:09.565Z,13.60
2022-11-13T16:11:35.874Z,13.87
2022-11-13T16:14:02.237Z,13.90
2022-11-13T16:16:30.054Z,13.90
2022-11-13T16:19:00.237Z,13.70
2022-11-13T16:21:26.888Z,13.47
2022-11-13T16:23:53.166Z,13.45
2022-11-13T16:26:20.206Z,13.29
2022-11-13T16:29:12.287Z,13.48
2022-11-13T16:31:33.514Z,13.62
2022-11-13T16:33:59.791Z,13.46
2022-11-13T16:36:27.538Z,13.57
2022-11-13T16:38:53.841Z,13.57
2022-11-13T16:41:20.118Z,13.24
2022-11-13T16:43:46.388Z,13.30
2022-11-13T16:46:12.604Z,13.27
2022-11-13T16:48:41.750Z,13.36
2022-11-13T16:51:08.062Z,13.43
2022-11-13T16:53:34.444Z,13.21
2022-11-13T16:56:00.716Z,13.15
2022-11-13T16:58:26.975Z,12.97
2022-11-13T17:00:59.922Z,12.99
2022-11-13T17:03:26.865Z,12.86
2022-11-13T17:05:53.365Z,12.64
2022-11-13T17:08:20.302Z,12.84
2022-11-13T17:10:46.626Z,12.82
2022-11-13T17:13:12.881Z,12.79
2022-11-13T17:15:39.148Z,13.03
2022-11-13T17:18:05.499Z,12.98
2022-11-13T17:20:31.752Z,12.95
2022-11-13T17:22:58.089Z,12.88
2022-11-13T17:25:26.618Z,12.64
2022-11-13T17:27:53.111Z,12.53
2022-11-13T17:30:19.406Z,12.37
2022-11-13T17:32:45.686Z,12.51
2022-11-13T17:35:11.950Z,12.73
2022-11-13T17:37:38.256Z,12.65
2022-11-13T17:40:04.716Z,12.60
2022-11-13T17:42:31.106Z,12.59
2022-11-13T17:44:57.384Z,12.57
2022-11-13T17:47:23.649Z,12.73
2022-11-13T17:49:49.981Z,12.66
2022-11-13T17:52:16.370Z,12.49
2022-11-13T17:54:42.717Z,12.49
2022-11-13T17:57:10.145Z,12.41
2022-11-13T17:59:36.467Z,12.46
2022-11-13T18:02:02.922Z,12.64
2022-11-13T18:04:29.330Z,12.55
2022-11-13T18:06:55.640Z,12.48
2022-11-13T18:09:21.996Z,12.43
2022-11-13T18:11:48.254Z,12.37
2022-11-13T18:14:14.541Z,12.19
2022-11-13T18:16:41.147Z,12.22
2022-11-13T18:19:09.177Z,12.24
2022-11-13T18:21:35.461Z,12.24
2022-11-13T18:24:06.139Z,12.40
2022-11-13T18:26:32.574Z,12.26
2022-11-13T18:28:58.933Z,12.22
2022-11-13T18:31:25.244Z,11.99
2022-11-13T18:33:51.634Z,12.00
2022-11-13T18:36:17.914Z,11.89
2022-11-13T18:38:44.271Z,12.00
2022-11-13T18:41:11.282Z,11.88
2022-11-13T18:43:37.584Z,11.89
2022-11-13T18:46:04.801Z,11.84
2022-11-13T18:48:31.585Z,11.80
2022-11-13T18:50:58.478Z,11.79
2022-11-13T18:53:24.757Z,12.10
2022-11-13T18:55:51.066Z,12.27
2022-11-13T18:58:17.329Z,12.44
2022-11-13T19:00:43.595Z,12.42
2022-11-13T19:03:09.875Z,12.53
2022-11-13T19:05:36.188Z,12.47
2022-11-13T19:08:02.468Z,12.67
2022-11-13T19:10:28.753Z,12.79
2022-11-13T19:12:55.015Z,12.75
2022-11-13T19:15:21.284Z,12.46
2022-11-13T19:17:52.675Z,12.35
2022-11-13T19:20:19.346Z,12.46
2022-11-13T19:22:45.625Z,12.47
2022-11-13T19:25:11.941Z,12.39
2022-11-13T19:27:38.249Z,12.46
2022-11-13T19:30:04.763Z,12.49
2022-11-13T19:32:31.042Z,12.44
2022-11-13T19:34:57.311Z,12.31
2022-11-13T19:37:23.655Z,12.35
2022-11-13T19:39:50.058Z,12.36
2022-11-13T19:42:16.365Z,12.37
2022-11-13T19:44:42.637Z,12.31
2022-11-13T19:47:08.932Z,12.36
2022-11-13T19:49:35.237Z,12.40
2022-11-13T19:52:01.517Z,12.22
2022-11-13T19:54:27.785Z,12.42
2022-11-13T19:56:54.060Z,12.55
2022-11-13T19:59:20.317Z,12.59
2022-11-13T20:01:46.660Z,12.54
2022-11-13T20:04:13.625Z,12.45
2022-11-13T20:06:40.023Z,12.58
2022-11-13T20:09:06.315Z,12.74
2022-11-13T20:11:32.653Z,12.68
2022-11-13T20:13:58.959Z,12.69
2022-11-13T20:16:25.741Z,12.50
2022-11-13T20:18:52.014Z,12.49
2022-11-13T20:21:24.934Z,12.58
2022-11-13T20:23:51.784Z,12.66
2022-11-13T20:26:18.056Z,12.59
2022-11-13T20:28:44.322Z,12.68
2022-11-13T20:31:12.542Z,12.72
2022-11-13T20:33:38.819Z,12.81
2022-11-13T20:36:05.220Z,12.80
2022-11-13T20:38:31.749Z,12.55
2022-11-13T20:40:58.254Z,12.44
2022-11-13T20:43:24.530Z,12.38
2022-11-13T20:45:50.799Z,12.24
2022-11-13T20:48:17.077Z,12.40
2022-11-13T20:50:43.473Z,12.18
2022-11-13T20:53:09.751Z,12.18
2022-11-13T20:55:36.209Z,12.11
2022-11-13T20:58:02.844Z,12.04
2022-11-13T21:00:29.159Z,12.18
2022-11-13T21:02:55.434Z,12.33
2022-11-13T21:05:21.713Z,12.65
2022-11-13T21:07:48.032Z,12.66
2022-11-13T21:10:14.297Z,12.71
2022-11-13T21:12:40.854Z,12.51
2022-11-13T21:15:07.345Z,12.44
2022-11-13T21:17:33.613Z,12.31
2022-11-13T21:19:59.915Z,12.19
2022-11-13T21:22:26.189Z,12.47
2022-11-13T21:24:52.444Z,12.47
2022-11-13T21:27:18.724Z,12.59
2022-11-13T21:29:44.998Z,12.64
2022-11-13T21:32:11.263Z,12.62
2022-11-13T21:34:38.048Z,12.42
2022-11-13T21:37:04.314Z,12.31
2022-11-13T21:39:30.923Z,12.19
2022-11-13T21:41:57.223Z,12.14
2022-11-13T21:44:23.500Z,12.09
2022-11-13T21:46:49.777Z,12.18
2022-11-13T21:49:16.057Z,12.13
2022-11-13T21:51:42.421Z,12.21
2022-11-13T21:54:08.688Z,12.14
2022-11-13T21:56:35.444Z,12.08
2022-11-13T21:59:01.742Z,12.19
2022-11-13T22:01:28.009Z,12.13
2022-11-13T22:03:54.336Z,12.17
2022-11-13T22:06:20.662Z,12.12
2022-11-13T22:08:47.490Z,12.14
2022-11-13T22:11:13.765Z,12.16
2022-11-13T22:13:40.062Z,12.03
2022-11-13T22:16:06.949Z,12.10
2022-11-13T22:18:33.367Z,12.13
2022-11-13T22:21:05.790Z,12.22
2022-11-13T22:23:32.247Z,12.25
2022-11-13T22:26:02.127Z,12.12
2022-11-13T22:28:28.562Z,12.00
2022-11-13T22:30:54.991Z,12.00
2022-11-13T22:33:21.294Z,12.07
2022-11-13T22:35:47.556Z,12.17
2022-11-13T22:38:13.887Z,12.04
2022-11-13T22:40:40.154Z,11.95
2022-11-13T22:43:06.468Z,11.75
2022-11-13T22:45:33.160Z,11.81
2022-11-13T22:47:59.430Z,11.71
2022-11-13T22:50:25.698Z,11.63
2022-11-13T22:52:52.078Z,11.81
2022-11-13T22:55:18.380Z,11.96
2022-11-13T22:57:44.655Z,11.90
2022-11-13T23:00:11.219Z,11.84
2022-11-13T23:02:37.484Z,11.83
2022-11-13T23:05:03.854Z,11.83
2022-11-13T23:07:30.583Z,11.81
2022-11-13T23:09:56.939Z,11.72
2022-11-13T23:12:23.340Z,11.77
2022-11-13T23:14:49.605Z,11.89
2022-11-13T23:17:15.883Z,12.03
2022-11-13T23:19:42.153Z,11.99
2022-11-13T23:22:08.437Z,11.80
2022-11-13T23:24:34.757Z,11.67
2022-11-13T23:27:01.044Z,11.80
2022-11-13T23:29:27.299Z,12.10
2022-11-13T23:31:53.566Z,12.18
2022-11-13T23:34:38.368Z,12.27
2022-11-13T23:37:06.179Z,12.20
2022-11-13T23:39:32.451Z,12.16
2022-11-13T23:41:58.723Z,12.21
2022-11-13T23:44:24.998Z,12.20
2022-11-13T23:46:51.266Z,12.21
2022-11-13T23:49:17.535Z,12.37
2022-11-13T23:51:43.794Z,12.32
2022-11-13T23:54:10.065Z,12.42
2022-11-13T23:56:36.339Z,12.16
2022-11-13T23:59:02.622Z,12.13
